Time;durP1;ratioP1;P1;durP2;ratioP2;P2;SDS_P1;SDS_P2;PMS_P1;PMS_P2;Temp;Humidity;BMP_temperature;BMP_pressure;BME280_temperature;BME280_humidity;BME280_pressure;Samples;Min_cycle;Max_cycle;Signal;HPM_P1;HPM_P2
2022/07/31 05:01:57;;;;;;;5.05;3.97;;;18.00;99.40;;;;;;5584856;23;20218;-71
2022/07/31 05:04:25;;;;;;;4.45;3.63;;;18.10;99.00;;;;;;4868967;29;20037;-71
2022/07/31 05:06:52;;;;;;;5.78;3.70;;;18.20;98.70;;;;;;4868739;29;20028;-70
2022/07/31 05:09:24;;;;;;;5.25;3.50;;;18.30;98.40;;;;;;4888977;29;20029;-70
2022/07/31 05:11:53;;;;;;;5.43;3.45;;;18.40;98.10;;;;;;4872174;29;20036;-70
2022/07/31 05:14:20;;;;;;;4.97;3.92;;;18.60;97.60;;;;;;4857386;29;20085;-70
2022/07/31 05:16:47;;;;;;;5.32;3.50;;;18.70;97.10;;;;;;4871391;29;20310;-70
2022/07/31 05:19:16;;;;;;;4.82;3.47;;;18.90;96.70;;;;;;4872669;29;20029;-71
2022/07/31 05:22:02;;;;;;;5.80;3.72;;;19.20;96.20;;;;;;4877609;29;20230;-70
2022/07/31 05:24:43;;;;;;;4.93;3.92;;;19.20;95.90;;;;;;4853734;29;20045;-69
2022/07/31 05:27:10;;;;;;;7.05;4.03;;;19.40;95.80;;;;;;4854034;29;20070;-70
2022/07/31 05:29:38;;;;;;;7.32;3.70;;;19.50;95.60;;;;;;4854097;29;20292;-70
2022/07/31 05:32:05;;;;;;;5.60;3.30;;;19.40;95.60;;;;;;4852800;29;20093;-70
2022/07/31 05:34:32;;;;;;;6.00;3.25;;;19.50;95.70;;;;;;4853572;29;20096;-71
2022/07/31 05:37:01;;;;;;;4.88;3.53;;;19.50;95.50;;;;;;4869624;29;20073;-71
2022/07/31 05:39:29;;;;;;;4.82;3.50;;;19.60;95.50;;;;;;4872275;29;20041;-70
2022/07/31 05:42:27;;;;;;;;;;;19.60;95.40;;;;;;4847741;29;20052;-72
2022/07/31 05:44:55;;;;;;;6.13;3.80;;;19.60;95.40;;;;;;4888144;29;19907;-71
2022/07/31 05:47:21;;;;;;;5.13;3.30;;;19.60;95.40;;;;;;4871224;29;20055;-70
2022/07/31 05:49:48;;;;;;;8.77;3.17;;;19.70;95.40;;;;;;4871664;29;20071;-70
2022/07/31 05:52:16;;;;;;;5.63;2.80;;;19.70;95.00;;;;;;4871890;29;20041;-71
2022/07/31 05:54:44;;;;;;;6.20;3.20;;;19.90;94.60;;;;;;4871270;29;20035;-71
2022/07/31 05:57:45;;;;;;;6.75;3.28;;;19.90;94.40;;;;;;4864264;29;20021;-70
2022/07/31 06:00:13;;;;;;;5.20;3.03;;;20.10;94.20;;;;;;4870957;29;20375;-70
2022/07/31 06:02:40;;;;;;;8.07;3.53;;;20.20;94.00;;;;;;4880072;29;20049;-70
2022/07/31 06:05:28;;;;;;;;;;;20.30;93.70;;;;;;4887906;29;20044;-70
2022/07/31 06:07:59;;;;;;;6.32;3.17;;;20.20;93.80;;;;;;4871201;29;20104;-70
2022/07/31 06:10:28;;;;;;;3.85;2.90;;;20.30;93.50;;;;;;4871742;29;20037;-70
2022/07/31 06:12:53;;;;;;;5.55;3.00;;;20.50;93.30;;;;;;4887943;29;20029;-70
2022/07/31 06:15:19;;;;;;;7.13;3.67;;;20.60;93.10;;;;;;4870746;29;20367;-71
2022/07/31 06:17:46;;;;;;;5.50;3.20;;;20.50;93.20;;;;;;4887920;29;20037;-70
2022/07/31 06:20:21;;;;;;;5.20;3.58;;;20.50;93.30;;;;;;4871763;29;20206;-69
2022/07/31 06:22:47;;;;;;;5.70;3.22;;;20.50;93.30;;;;;;4870916;29;20070;-72
2022/07/31 06:25:13;;;;;;;4.97;3.00;;;20.60;93.20;;;;;;4871501;29;20107;-70
2022/07/31 06:27:40;;;;;;;3.70;2.80;;;20.50;93.20;;;;;;4871246;29;20033;-73
2022/07/31 06:30:07;;;;;;;5.05;3.10;;;20.60;92.90;;;;;;4870456;29;20104;-71
2022/07/31 06:32:33;;;;;;;5.20;2.95;;;20.60;92.90;;;;;;4887853;29;20069;-70
2022/07/31 06:35:00;;;;;;;4.25;2.67;;;20.70;92.70;;;;;;4870780;29;20055;-71
2022/07/31 06:37:27;;;;;;;5.25;3.13;;;20.90;92.40;;;;;;4889695;29;20099;-71
2022/07/31 06:39:53;;;;;;;5.13;3.05;;;21.00;92.20;;;;;;4889151;29;20060;-71
2022/07/31 06:42:37;;;;;;;4.53;2.63;;;21.20;91.90;;;;;;4906798;29;20074;-71
2022/07/31 06:45:03;;;;;;;4.68;2.53;;;21.30;91.50;;;;;;4888913;29;20037;-71
2022/07/31 06:47:36;;;;;;;4.07;2.45;;;21.40;91.30;;;;;;4906877;29;20040;-71
2022/07/31 06:50:10;;;;;;;4.88;2.75;;;21.50;91.20;;;;;;4889388;29;20032;-70
2022/07/31 06:52:45;;;;;;;5.13;2.92;;;21.50;91.10;;;;;;4889888;29;20036;-70
2022/07/31 06:55:11;;;;;;;4.45;3.15;;;21.50;90.90;;;;;;4890032;29;20056;-71
2022/07/31 06:57:38;;;;;;;6.78;2.65;;;21.70;90.80;;;;;;4885621;29;20048;-71
2022/07/31 07:00:05;;;;;;;3.95;2.50;;;21.80;90.30;;;;;;4886775;29;20082;-71
2022/07/31 07:02:34;;;;;;;3.92;2.72;;;21.90;90.10;;;;;;4886341;29;20060;-70
2022/07/31 07:04:59;;;;;;;4.20;2.42;;;22.00;90.00;;;;;;4887373;29;20037;-71
2022/07/31 07:07:25;;;;;;;5.07;2.55;;;22.00;90.00;;;;;;4871308;29;20041;-72
2022/07/31 07:09:54;;;;;;;4.88;3.05;;;22.10;89.40;;;;;;4870616;29;20029;-70
2022/07/31 07:12:39;;;;;;;6.22;3.15;;;22.10;90.00;;;;;;4887306;29;20055;-70
2022/07/31 07:15:06;;;;;;;6.95;2.33;;;22.10;89.40;;;;;;4869918;29;20124;-70
2022/07/31 07:17:32;;;;;;;5.10;2.60;;;22.00;89.20;;;;;;4870944;29;20025;-69
2022/07/31 07:19:58;;;;;;;5.65;2.25;;;22.20;89.20;;;;;;4870662;29;20075;-69
2022/07/31 07:22:24;;;;;;;4.38;2.72;;;22.30;88.60;;;;;;4871188;29;20302;-70
2022/07/31 07:24:50;;;;;;;5.68;2.67;;;22.50;88.20;;;;;;4854995;29;20032;-70
2022/07/31 07:27:20;;;;;;;3.85;2.40;;;22.50;88.00;;;;;;4870878;29;20033;-71
2022/07/31 07:29:46;;;;;;;6.43;2.83;;;22.70;87.20;;;;;;4870827;29;20031;-70
2022/07/31 07:32:13;;;;;;;4.95;2.38;;;22.80;86.70;;;;;;4886821;29;20064;-72
2022/07/31 07:34:39;;;;;;;4.22;2.65;;;22.90;86.40;;;;;;4872014;29;20267;-70
2022/07/31 07:37:09;;;;;;;3.83;2.13;;;23.20;85.70;;;;;;4873004;29;20063;-67
2022/07/31 07:39:35;;;;;;;4.50;2.50;;;23.50;84.70;;;;;;4874084;29;20385;-68
2022/07/31 07:42:01;;;;;;;5.18;2.38;;;23.60;84.30;;;;;;4873970;29;20090;-69
2022/07/31 07:44:26;;;;;;;3.70;2.03;;;23.90;83.50;;;;;;4858814;29;20073;-70
2022/07/31 07:46:52;;;;;;;4.55;2.25;;;24.10;82.50;;;;;;4873069;29;20044;-69
2022/07/31 07:49:20;;;;;;;3.47;2.10;;;24.20;82.30;;;;;;4874032;29;20025;-68
2022/07/31 07:52:01;;;;;;;4.80;2.47;;;24.40;81.80;;;;;;4860025;29;20033;-67
2022/07/31 07:54:33;;;;;;;5.05;2.47;;;24.60;81.30;;;;;;4890834;29;20161;-68
2022/07/31 07:57:18;;;;;;;3.22;2.17;;;24.50;80.90;;;;;;4875761;29;20041;-69
2022/07/31 07:59:53;;;;;;;4.60;2.30;;;24.70;80.70;;;;;;4909134;29;20037;-67
2022/07/31 08:02:45;;;;;;;5.50;2.17;;;24.90;80.10;;;;;;4908827;29;20305;-74
2022/07/31 08:05:14;;;;;;;3.58;2.40;;;25.00;79.30;;;;;;4892139;29;20037;-69
2022/07/31 08:07:50;;;;;;;3.53;2.08;;;25.10;78.90;;;;;;4873772;29;20052;-71
2022/07/31 08:10:38;;;;;;;4.63;2.40;;;25.30;78.60;;;;;;4869858;29;20068;-71
2022/07/31 08:13:23;;;;;;;3.17;2.10;;;25.40;78.20;;;;;;4891948;29;20054;-71
2022/07/31 08:16:10;;;;;;;3.65;2.35;;;25.40;78.70;;;;;;4908108;29;20097;-70
2022/07/31 08:18:51;;;;;;;5.03;2.67;;;25.40;78.30;;;;;;4878284;29;20226;-70
2022/07/31 08:21:29;;;;;;;4.35;2.42;;;25.40;78.20;;;;;;4873282;29;20124;-74
2022/07/31 08:23:55;;;;;;;;;;;25.40;78.00;;;;;;4890146;29;20037;-70
2022/07/31 08:26:21;;;;;;;4.40;2.40;;;25.50;77.80;;;;;;4858284;29;19987;-71
2022/07/31 08:28:47;;;;;;;5.15;2.10;;;25.30;78.00;;;;;;4873675;29;20033;-71
2022/07/31 08:31:14;;;;;;;3.17;2.13;;;25.30;78.50;;;;;;4857242;29;20064;-71
2022/07/31 08:33:58;;;;;;;3.63;2.10;;;25.30;78.70;;;;;;4873356;29;20029;-73
2022/07/31 08:36:25;;;;;;;3.78;2.25;;;25.30;78.30;;;;;;4868996;29;20031;-71
2022/07/31 08:38:51;;;;;;;4.70;2.25;;;25.30;78.80;;;;;;4891661;29;20048;-72
2022/07/31 08:41:39;;;;;;;4.82;1.90;;;25.30;78.30;;;;;;4904638;29;20061;-71
2022/07/31 08:44:08;;;;;;;3.33;1.80;;;25.40;78.00;;;;;;4887704;29;20036;-71
2022/07/31 08:46:38;;;;;;;3.97;1.95;;;25.50;77.60;;;;;;4888745;29;20064;-70
2022/07/31 08:49:05;;;;;;;4.63;2.55;;;25.50;76.80;;;;;;4872400;29;20025;-71
2022/07/31 08:51:35;;;;;;;5.65;2.17;;;25.40;76.20;;;;;;4858802;29;20040;-70
2022/07/31 08:54:30;;;;;;;3.65;2.20;;;25.60;76.30;;;;;;4889006;29;20104;-70
2022/07/31 08:56:56;;;;;;;3.97;2.22;;;25.70;76.70;;;;;;4857275;29;20033;-71
2022/07/31 08:59:22;;;;;;;5.18;2.72;;;25.80;75.00;;;;;;4857794;29;20200;-71
2022/07/31 09:01:55;;;;;;;5.50;2.92;;;25.90;74.60;;;;;;4881988;29;20120;-73
2022/07/31 09:04:38;;;;;;;5.20;2.20;;;26.00;73.60;;;;;;4876960;29;20064;-71
2022/07/31 09:07:20;;;;;;;6.13;2.10;;;26.10;72.40;;;;;;4890922;29;20028;-75
2022/07/31 09:09:46;;;;;;;6.45;1.90;;;26.20;71.50;;;;;;4876036;29;20025;-73
2022/07/31 09:15:34;;;;;;;4.93;2.00;;;26.70;70.40;;;;;;4897818;29;20040;-72
2022/07/31 09:22:06;;;;;;;5.63;1.85;;;26.90;68.60;;;;;;4907962;29;20075;-72
2022/07/31 09:24:55;;;;;;;4.70;2.10;;;26.80;67.30;;;;;;4891630;29;20064;-72
2022/07/31 09:28:08;;;;;;;3.85;2.00;;;26.90;69.50;;;;;;4894755;29;20325;-72
2022/07/31 09:31:06;;;;;;;5.53;1.75;;;27.10;69.40;;;;;;4889954;29;20036;-72
2022/07/31 09:34:05;;;;;;;4.90;1.80;;;27.20;68.00;;;;;;4892903;29;20055;-71
2022/07/31 09:36:43;;;;;;;3.92;1.98;;;27.50;67.20;;;;;;4907433;29;20064;-72
2022/07/31 09:39:59;;;;;;;3.80;1.70;;;27.70;66.50;;;;;;4878488;29;20112;-72
2022/07/31 09:42:52;;;;;;;3.65;1.38;;;27.90;65.80;;;;;;4907568;29;20111;-71
2022/07/31 09:45:38;;;;;;;2.08;1.20;;;28.20;64.30;;;;;;4887486;29;20167;-72
2022/07/31 09:48:11;;;;;;;4.20;1.50;;;28.50;62.50;;;;;;4890066;29;20032;-73
2022/07/31 09:51:02;;;;;;;6.15;1.90;;;28.70;61.20;;;;;;4881566;29;20222;-73
2022/07/31 09:53:58;;;;;;;2.50;1.50;;;29.00;62.20;;;;;;4890230;29;20064;-73
2022/07/31 09:57:23;;;;;;;2.85;1.40;;;29.30;61.90;;;;;;4906802;29;20046;-73
2022/07/31 09:59:55;;;;;;;10.95;1.75;;;29.50;60.00;;;;;;4880964;29;20326;-77
2022/07/31 10:02:21;;;;;;;3.20;1.50;;;29.70;60.10;;;;;;4885460;29;20113;-74
2022/07/31 10:04:51;;;;;;;3.90;1.30;;;30.00;59.60;;;;;;4871647;29;20220;-75
2022/07/31 10:07:17;;;;;;;4.15;1.40;;;30.00;58.70;;;;;;4855146;29;20554;-74
2022/07/31 10:09:47;;;;;;;4.45;1.40;;;30.00;59.00;;;;;;4871698;29;20040;-76
2022/07/31 10:12:32;;;;;;;3.35;1.35;;;30.00;58.60;;;;;;4886349;29;20239;-75
2022/07/31 10:15:08;;;;;;;3.35;1.30;;;29.90;58.90;;;;;;4870799;29;20073;-74
2022/07/31 10:17:38;;;;;;;5.60;1.30;;;29.90;58.50;;;;;;4871050;29;20177;-73
2022/07/31 10:21:01;;;;;;;1.83;1.00;;;29.90;58.40;;;;;;4869868;29;20104;-72
2022/07/31 10:23:59;;;;;;;2.75;1.77;;;30.20;58.10;;;;;;4887956;29;20032;-73
2022/07/31 10:26:50;;;;;;;6.50;3.45;;;30.40;57.80;;;;;;4871221;29;20033;-74
2022/07/31 10:29:48;;;;;;;5.00;2.25;;;30.50;57.30;;;;;;4870809;29;20287;-74
2022/07/31 10:37:25;;;;;;;6.60;2.42;;;30.50;57.30;;;;;;4867245;29;20044;-74
2022/07/31 10:43:56;;;;;;;5.32;1.48;;;30.40;58.00;;;;;;4794506;29;20035;-73
2022/07/31 10:46:59;;;;;;;3.10;1.83;;;30.70;56.50;;;;;;4810896;29;20050;-73
2022/07/31 10:50:32;;;;;;;2.90;1.42;;;31.10;57.30;;;;;;4810579;29;20097;-73
2022/07/31 10:53:22;;;;;;;2.83;1.63;;;31.40;55.50;;;;;;4692730;30;20335;-73
2022/07/31 10:56:29;;;;;;;3.20;1.30;;;31.50;55.40;;;;;;4757975;30;20385;-73
2022/07/31 10:59:51;;;;;;;3.63;1.50;;;31.00;56.00;;;;;;4756552;30;20059;-74
2022/07/31 11:03:19;;;;;;;2.85;1.38;;;30.80;55.70;;;;;;4756457;30;20052;-72
2022/07/31 11:06:14;;;;;;;2.38;1.10;;;30.60;56.60;;;;;;4741445;30;20128;-72
2022/07/31 11:08:58;;;;;;;2.40;1.33;;;30.50;55.90;;;;;;4726946;30;20373;-72
2022/07/31 11:15:42;;;;;;;3.63;1.52;;;30.70;56.40;;;;;;4746400;30;20142;-73
2022/07/31 11:18:38;;;;;;;5.45;1.35;;;31.30;56.80;;;;;;4762397;30;20141;-72
2022/07/31 11:21:09;;;;;;;2.03;1.08;;;31.50;54.70;;;;;;4759990;30;20440;-73
2022/07/31 11:23:40;;;;;;;1.70;1.10;;;31.40;55.40;;;;;;4756260;30;20222;-73
2022/07/31 11:26:34;;;;;;;3.67;1.40;;;31.30;56.20;;;;;;4711639;30;20253;-73
2022/07/31 11:29:05;;;;;;;3.53;1.13;;;31.60;56.10;;;;;;4750308;30;20062;-72
2022/07/31 11:31:37;;;;;;;2.72;0.95;;;31.80;55.60;;;;;;4781001;30;20286;-72
2022/07/31 11:34:09;;;;;;;3.15;1.00;;;32.20;54.60;;;;;;4778004;30;20051;-73
2022/07/31 11:36:50;;;;;;;3.67;1.35;;;32.50;54.20;;;;;;4781523;30;20337;-73
2022/07/31 11:39:19;;;;;;;2.80;1.08;;;33.20;54.20;;;;;;4778231;30;20056;-72
2022/07/31 11:41:47;;;;;;;4.32;1.20;;;33.30;53.10;;;;;;4763765;30;20052;-73
2022/07/31 11:44:19;;;;;;;4.68;1.17;;;33.50;53.60;;;;;;4781470;30;20039;-74
2022/07/31 11:46:48;;;;;;;1.58;0.88;;;33.40;52.70;;;;;;4778172;30;20269;-73
2022/07/31 11:49:21;;;;;;;2.42;1.08;;;32.90;52.50;;;;;;4778155;30;20352;-72
2022/07/31 11:51:59;;;;;;;2.22;0.90;;;32.20;53.80;;;;;;4833989;29;20069;-73
2022/07/31 11:54:28;;;;;;;3.33;1.00;;;31.90;54.00;;;;;;4870819;29;20045;-74
2022/07/31 11:56:54;;;;;;;3.35;1.20;;;31.70;54.20;;;;;;4871340;29;20369;-72
2022/07/31 11:59:33;;;;;;;2.00;1.10;;;31.60;54.80;;;;;;4870975;29;20272;-73
2022/07/31 12:05:27;;;;;;;1.83;1.00;;;32.50;53.30;;;;;;4922745;29;20092;-73
2022/07/31 12:07:59;;;;;;;2.47;1.00;;;33.70;53.00;;;;;;4927373;29;20031;-73
2022/07/31 12:10:40;;;;;;;2.55;1.00;;;36.40;50.80;;;;;;4926706;29;20231;-73
2022/07/31 12:13:18;;;;;;;3.53;0.90;;;37.40;49.00;;;;;;4926899;29;20020;-73
2022/07/31 12:16:03;;;;;;;2.00;1.00;;;38.30;48.20;;;;;;4918217;29;20054;-73
2022/07/31 12:18:58;;;;;;;2.58;1.05;;;38.50;47.80;;;;;;4927186;29;20309;-73
2022/07/31 12:21:38;;;;;;;2.55;0.85;;;38.10;47.10;;;;;;4926315;29;20036;-73
2022/07/31 12:24:13;;;;;;;3.60;0.95;;;39.00;46.60;;;;;;4894333;29;20040;-74
2022/07/31 12:27:07;;;;;;;2.38;0.82;;;37.80;47.20;;;;;;4910444;29;20028;-73
2022/07/31 12:33:12;;;;;;;2.20;0.80;;;37.80;47.40;;;;;;4852955;29;20096;-73
2022/07/31 12:35:45;;;;;;;2.15;1.00;;;37.10;48.10;;;;;;4926549;29;20028;-73
2022/07/31 12:38:22;;;;;;;1.63;0.63;;;35.90;49.20;;;;;;4926601;29;20035;-73
2022/07/31 12:40:48;;;;;;;2.83;1.03;;;36.00;48.80;;;;;;4926652;29;20055;-72
2022/07/31 12:43:23;;;;;;;1.85;1.02;;;35.40;50.00;;;;;;4909861;29;20031;-74
2022/07/31 12:45:57;;;;;;;3.22;1.00;;;35.60;49.80;;;;;;4926243;29;20044;-72
2022/07/31 12:48:22;;;;;;;2.30;1.08;;;35.90;49.60;;;;;;4871826;29;20060;-74
2022/07/31 12:51:00;;;;;;;2.15;0.95;;;35.60;50.40;;;;;;4888877;29;20116;-78
2022/07/31 12:53:30;;;;;;;2.50;1.20;;;34.70;50.50;;;;;;4872279;29;20040;-75
2022/07/31 12:55:57;;;;;;;2.35;1.17;;;34.10;51.40;;;;;;4857201;29;20330;-72
2022/07/31 12:58:23;;;;;;;2.75;1.00;;;33.60;51.60;;;;;;4856285;29;20083;-72
2022/07/31 13:00:49;;;;;;;2.53;1.27;;;33.10;52.40;;;;;;4888216;29;20048;-72
2022/07/31 13:03:15;;;;;;;2.40;1.08;;;32.80;53.30;;;;;;4887743;29;20516;-71
2022/07/31 13:05:41;;;;;;;1.85;1.08;;;33.70;52.70;;;;;;4888992;29;20092;-71
2022/07/31 13:08:07;;;;;;;2.20;0.90;;;35.00;51.10;;;;;;4888299;29;20318;-70
2022/07/31 13:10:34;;;;;;;2.00;1.10;;;35.00;51.00;;;;;;4888535;29;20041;-74
2022/07/31 13:13:00;;;;;;;2.28;1.10;;;34.90;51.00;;;;;;4888374;29;20037;-72
2022/07/31 13:15:28;;;;;;;1.95;0.98;;;35.30;50.70;;;;;;4890641;29;20279;-71
2022/07/31 13:17:58;;;;;;;1.98;1.00;;;37.20;49.50;;;;;;4906912;29;20029;-72
2022/07/31 13:20:24;;;;;;;3.17;1.10;;;37.60;48.80;;;;;;4906712;29;20048;-71
2022/07/31 13:22:50;;;;;;;2.13;0.80;;;37.20;48.50;;;;;;4890628;29;20247;-71
2022/07/31 13:25:15;;;;;;;2.28;1.00;;;36.70;48.70;;;;;;4906431;29;20042;-71
2022/07/31 13:27:41;;;;;;;2.25;0.82;;;36.40;48.90;;;;;;4906736;29;20024;-71
2022/07/31 13:30:08;;;;;;;2.53;1.40;;;38.00;48.80;;;;;;4905600;29;20082;-71
2022/07/31 13:32:34;;;;;;;3.20;0.80;;;40.70;46.90;;;;;;4906554;29;20306;-72
2022/07/31 13:35:00;;;;;;;2.38;1.00;;;43.20;45.00;;;;;;4906689;29;20105;-71
2022/07/31 13:37:26;;;;;;;3.20;1.00;;;43.00;43.70;;;;;;4906009;29;20076;-71
2022/07/31 13:39:52;;;;;;;1.52;0.70;;;40.40;44.60;;;;;;4906686;29;20040;-71
2022/07/31 13:42:18;;;;;;;2.28;1.08;;;38.60;46.70;;;;;;4905974;29;20369;-71
2022/07/31 13:44:43;;;;;;;1.98;0.80;;;37.20;47.40;;;;;;4906575;29;20089;-72
2022/07/31 13:47:09;;;;;;;3.45;1.30;;;36.80;48.30;;;;;;4905613;29;20047;-70
2022/07/31 13:49:35;;;;;;;5.57;5.07;;;38.50;47.30;;;;;;4906716;29;20037;-72
2022/07/31 13:52:01;;;;;;;8.55;5.22;;;41.20;45.80;;;;;;4889789;29;20242;-71
2022/07/31 13:54:27;;;;;;;8.30;7.47;;;44.20;43.50;;;;;;4905804;29;20311;-71
2022/07/31 13:56:54;;;;;;;3.05;2.30;;;45.80;42.50;;;;;;4906542;29;20111;-71
2022/07/31 13:59:20;;;;;;;3.33;1.17;;;44.20;41.60;;;;;;4889198;29;20221;-74
2022/07/31 14:01:49;;;;;;;1.55;0.75;;;41.50;42.90;;;;;;4905933;29;20051;-71
2022/07/31 14:04:19;;;;;;;15.43;13.85;;;40.70;43.00;;;;;;4905191;29;20071;-71
2022/07/31 14:06:45;;;;;;;3.22;1.90;;;39.60;43.60;;;;;;4906138;29;20037;-71
2022/07/31 14:09:11;;;;;;;4.20;2.65;;;38.80;44.40;;;;;;4905597;29;20020;-71
2022/07/31 14:11:38;;;;;;;79.30;67.03;;;39.90;43.60;;;;;;4907520;29;20044;-72
2022/07/31 14:14:03;;;;;;;12.88;10.82;;;42.10;43.50;;;;;;4907414;29;20028;-73
2022/07/31 14:16:40;;;;;;;5.70;4.85;;;44.00;41.80;;;;;;4906208;29;20260;-72
2022/07/31 14:19:06;;;;;;;3.33;2.10;;;43.90;41.20;;;;;;4907227;29;20043;-73
2022/07/31 14:21:35;;;;;;;3.38;2.30;;;43.60;42.10;;;;;;4906516;29;20032;-72
2022/07/31 14:24:01;;;;;;;116.63;104.90;;;44.50;41.50;;;;;;4907198;29;20314;-71
2022/07/31 14:26:27;;;;;;;3.60;2.35;;;45.60;40.70;;;;;;4906570;29;20048;-73
2022/07/31 14:28:52;;;;;;;6.07;4.88;;;46.10;39.40;;;;;;4906875;29;20036;-71
2022/07/31 14:31:18;;;;;;;16.35;14.77;;;45.50;39.80;;;;;;4906092;29;20044;-71
2022/07/31 14:33:44;;;;;;;4.95;2.72;;;44.90;39.20;;;;;;4890476;29;20063;-73
2022/07/31 14:36:10;;;;;;;7.50;5.78;;;44.50;39.40;;;;;;4890222;29;20070;-72
2022/07/31 14:38:36;;;;;;;7.03;5.43;;;44.90;39.50;;;;;;4906834;29;20330;-72
2022/07/31 14:41:02;;;;;;;4.82;4.25;;;46.70;38.50;;;;;;4907179;29;20028;-72
2022/07/31 14:43:29;;;;;;;5.03;3.05;;;45.90;38.60;;;;;;4907798;29;20060;-71
2022/07/31 14:45:55;;;;;;;3.00;1.60;;;45.20;38.20;;;;;;4907277;29;20040;-70
2022/07/31 14:48:21;;;;;;;3.25;1.40;;;44.30;39.40;;;;;;4907689;29;20039;-74
2022/07/31 14:50:47;;;;;;;13.88;11.93;;;43.10;39.90;;;;;;4908412;29;20210;-72
2022/07/31 14:53:15;;;;;;;5.35;3.60;;;40.70;41.60;;;;;;4906898;29;20111;-72
2022/07/31 14:55:41;;;;;;;6.03;3.80;;;40.70;41.50;;;;;;4906757;29;20036;-72
2022/07/31 14:58:07;;;;;;;3.08;1.17;;;42.80;41.10;;;;;;4906605;29;20333;-72
2022/07/31 15:00:33;;;;;;;2.38;0.95;;;44.50;39.60;;;;;;4905310;29;20055;-72
2022/07/31 15:02:59;;;;;;;3.73;1.30;;;46.60;38.40;;;;;;4906855;29;20036;-72
2022/07/31 15:05:25;;;;;;;2.53;0.80;;;47.70;37.60;;;;;;4905882;29;20053;-73
2022/07/31 15:07:51;;;;;;;4.57;0.80;;;48.20;37.40;;;;;;4906400;29;20037;-72
2022/07/31 15:10:17;;;;;;;2.10;0.60;;;48.50;37.20;;;;;;4905947;29;20043;-72
2022/07/31 15:12:42;;;;;;;1.63;0.95;;;46.90;37.40;;;;;;4906907;29;20024;-72
2022/07/31 15:15:09;;;;;;;1.65;0.70;;;44.80;38.90;;;;;;4905899;29;20051;-71
2022/07/31 15:17:34;;;;;;;1.88;1.27;;;43.70;39.00;;;;;;4906318;29;20028;-72
2022/07/31 15:20:00;;;;;;;1.95;0.70;;;42.60;39.20;;;;;;4906979;29;20036;-71
2022/07/31 15:22:26;;;;;;;2.28;0.93;;;41.90;39.90;;;;;;4905838;29;20041;-71
2022/07/31 15:24:52;;;;;;;1.60;0.60;;;41.10;40.60;;;;;;4906302;29;20044;-71
2022/07/31 15:27:20;;;;;;;3.15;0.80;;;40.10;41.10;;;;;;4905856;29;20040;-72
2022/07/31 15:29:46;;;;;;;2.53;0.80;;;41.00;41.40;;;;;;4906368;29;20084;-72
2022/07/31 15:32:12;;;;;;;3.05;0.65;;;41.70;40.50;;;;;;4905700;29;20072;-70
2022/07/31 15:34:38;;;;;;;3.90;1.38;;;41.00;40.80;;;;;;4906138;29;20043;-71
2022/07/31 15:37:03;;;;;;;2.45;0.80;;;41.20;40.90;;;;;;4906177;29;20024;-71
2022/07/31 15:39:29;;;;;;;2.92;0.95;;;41.40;41.00;;;;;;4905840;29;20039;-70
2022/07/31 15:41:56;;;;;;;2.42;0.63;;;40.70;41.10;;;;;;4906178;29;20051;-73
2022/07/31 15:44:23;;;;;;;1.77;0.80;;;39.60;42.00;;;;;;4905995;29;20099;-72
2022/07/31 15:46:49;;;;;;;3.28;0.82;;;38.80;42.60;;;;;;4905974;29;20036;-71
2022/07/31 15:49:15;;;;;;;3.88;0.80;;;39.10;43.30;;;;;;4889624;29;20059;-73
2022/07/31 15:51:41;;;;;;;2.85;0.90;;;40.60;41.70;;;;;;4906098;29;20226;-72
2022/07/31 15:54:06;;;;;;;2.35;1.05;;;41.40;41.50;;;;;;4906091;29;20032;-71
2022/07/31 15:56:32;;;;;;;2.65;0.77;;;42.60;40.60;;;;;;4906625;29;20025;-71
2022/07/31 15:59:00;;;;;;;1.85;0.70;;;42.10;40.30;;;;;;4909542;29;20275;-71
2022/07/31 16:01:26;;;;;;;1.25;0.60;;;41.20;41.10;;;;;;4908346;29;20048;-72
2022/07/31 16:03:55;;;;;;;1.80;0.70;;;40.30;41.80;;;;;;4909254;29;20352;-70
2022/07/31 16:06:21;;;;;;;1.80;0.75;;;39.00;42.50;;;;;;4909153;29;20024;-71
2022/07/31 16:08:46;;;;;;;2.70;0.88;;;38.30;43.10;;;;;;4909869;29;20227;-74
2022/07/31 16:11:12;;;;;;;1.65;0.82;;;37.50;44.10;;;;;;4909724;29;20033;-71
2022/07/31 16:13:38;;;;;;;1.67;1.00;;;36.80;44.40;;;;;;4907447;29;20040;-73
2022/07/31 16:16:05;;;;;;;1.92;0.80;;;36.20;45.00;;;;;;4908900;29;20051;-71
2022/07/31 16:18:31;;;;;;;1.37;0.63;;;36.60;45.30;;;;;;4909247;29;20103;-72
2022/07/31 16:20:57;;;;;;;5.80;1.08;;;38.30;43.80;;;;;;4909193;29;20267;-72
2022/07/31 16:23:26;;;;;;;3.20;0.90;;;40.20;42.90;;;;;;4908835;29;20037;-71
2022/07/31 16:25:53;;;;;;;3.67;0.90;;;41.00;41.60;;;;;;4909312;29;20040;-70
2022/07/31 16:28:19;;;;;;;2.95;0.85;;;40.70;42.40;;;;;;4908719;29;20196;-70
2022/07/31 16:30:45;;;;;;;5.18;0.80;;;40.00;42.20;;;;;;4908211;29;20058;-70
2022/07/31 16:33:11;;;;;;;2.58;0.93;;;39.00;42.90;;;;;;4908939;29;20033;-74
2022/07/31 16:35:37;;;;;;;2.58;1.00;;;38.30;43.80;;;;;;4908331;29;20045;-73
2022/07/31 16:38:03;;;;;;;5.28;1.20;;;37.50;44.00;;;;;;4908982;29;20045;-73
2022/07/31 16:40:30;;;;;;;2.53;1.00;;;36.90;44.90;;;;;;4908224;29;20218;-74
2022/07/31 16:42:56;;;;;;;2.73;1.20;;;36.30;45.30;;;;;;4909073;29;20082;-73
2022/07/31 16:45:22;;;;;;;3.10;1.10;;;36.10;45.80;;;;;;4907786;29;20443;-73
2022/07/31 16:47:47;;;;;;;2.35;0.90;;;36.40;45.60;;;;;;4909185;29;20029;-72
2022/07/31 16:50:13;;;;;;;3.67;1.00;;;36.20;45.70;;;;;;4908850;29;20249;-73
2022/07/31 16:52:39;;;;;;;2.22;1.20;;;35.60;46.00;;;;;;4908198;29;20044;-73
2022/07/31 16:55:05;;;;;;;3.08;1.00;;;35.40;46.60;;;;;;4908843;29;20025;-74
2022/07/31 16:57:31;;;;;;;1.50;0.80;;;35.10;46.60;;;;;;4908259;29;20028;-72
2022/07/31 16:59:56;;;;;;;2.22;1.20;;;34.90;46.70;;;;;;4908691;29;20059;-71
2022/07/31 17:02:22;;;;;;;3.55;1.35;;;34.70;47.10;;;;;;4907406;29;20047;-71
2022/07/31 17:04:48;;;;;;;1.98;1.00;;;34.20;47.60;;;;;;4908495;29;20111;-72
2022/07/31 17:07:14;;;;;;;2.08;0.90;;;33.80;48.20;;;;;;4907872;29;20044;-71
2022/07/31 17:09:44;;;;;;;2.35;1.23;;;33.60;48.60;;;;;;4894955;29;20048;-71
2022/07/31 17:12:10;;;;;;;3.28;1.20;;;33.40;48.90;;;;;;4889347;29;20358;-71
2022/07/31 17:14:37;;;;;;;2.83;1.10;;;33.20;49.10;;;;;;4895738;29;20020;-71
2022/07/31 17:17:06;;;;;;;4.28;1.27;;;33.00;49.40;;;;;;4907854;29;20040;-70
2022/07/31 17:19:38;;;;;;;3.95;1.30;;;32.80;49.90;;;;;;4907786;29;20031;-70
2022/07/31 17:22:07;;;;;;;2.72;1.10;;;32.80;49.80;;;;;;4908236;29;20029;-70
2022/07/31 17:24:35;;;;;;;2.35;1.20;;;32.90;49.80;;;;;;4907704;29;20030;-69
2022/07/31 17:27:03;;;;;;;1.75;0.98;;;32.70;50.10;;;;;;4907904;29;20085;-70
2022/07/31 17:29:30;;;;;;;2.35;1.00;;;32.60;50.40;;;;;;4907192;29;20068;-69
2022/07/31 17:31:55;;;;;;;2.22;1.10;;;32.30;50.60;;;;;;4907035;29;20127;-69
2022/07/31 17:34:21;;;;;;;1.92;1.08;;;32.00;51.00;;;;;;4907843;29;20089;-70
2022/07/31 17:36:48;;;;;;;3.78;1.30;;;32.00;51.30;;;;;;4890144;29;20072;-70
2022/07/31 17:39:15;;;;;;;2.47;1.07;;;33.00;50.10;;;;;;4891142;29;20032;-70
2022/07/31 17:41:41;;;;;;;2.50;1.17;;;34.10;49.20;;;;;;4907310;29;20041;-69
2022/07/31 17:44:07;;;;;;;3.40;1.10;;;35.50;47.80;;;;;;4907297;29;20107;-70
2022/07/31 17:46:32;;;;;;;2.13;0.95;;;37.00;46.50;;;;;;4906802;29;20041;-70
2022/07/31 17:48:58;;;;;;;2.83;0.98;;;38.30;45.40;;;;;;4907701;29;20044;-70
2022/07/31 17:51:39;;;;;;;3.40;1.10;;;37.30;45.50;;;;;;4890918;29;20374;-71
2022/07/31 17:55:08;;;;;;;3.70;1.20;;;36.00;46.80;;;;;;4907284;29;20233;-71
2022/07/31 18:00:39;;;;;;;2.17;1.20;;;34.00;49.10;;;;;;4848378;29;20061;-69
2022/07/31 18:03:35;;;;;;;3.47;1.40;;;33.40;49.90;;;;;;4845147;29;20107;-70
2022/07/31 18:06:27;;;;;;;3.38;1.20;;;32.80;50.50;;;;;;4816454;29;20198;-70
2022/07/31 18:09:29;;;;;;;3.08;1.10;;;32.20;51.20;;;;;;4831096;29;20093;-69
2022/07/31 18:11:56;;;;;;;3.80;1.50;;;31.90;51.80;;;;;;4828076;29;20046;-70
2022/07/31 18:14:25;;;;;;;3.47;1.10;;;31.70;52.40;;;;;;4831047;29;20045;-70
2022/07/31 18:16:51;;;;;;;2.42;1.10;;;31.50;52.40;;;;;;4830986;29;20145;-70
2022/07/31 18:19:22;;;;;;;3.25;1.55;;;31.20;52.90;;;;;;4830901;29;20111;-69
2022/07/31 18:21:57;;;;;;;3.38;1.35;;;31.10;53.10;;;;;;4831129;29;20049;-70
2022/07/31 18:27:23;;;;;;;2.45;1.20;;;30.90;53.40;;;;;;4831139;29;20046;-69
2022/07/31 18:29:50;;;;;;;3.22;1.08;;;30.90;53.60;;;;;;4831329;29;20099;-69
2022/07/31 18:32:17;;;;;;;2.15;1.20;;;30.80;53.60;;;;;;4830125;29;20042;-71
2022/07/31 18:34:44;;;;;;;2.63;1.30;;;30.60;54.10;;;;;;4830918;29;20336;-69
2022/07/31 18:37:10;;;;;;;4.13;1.20;;;30.40;54.00;;;;;;4846510;29;20257;-69
2022/07/31 18:39:36;;;;;;;2.20;1.17;;;30.40;54.30;;;;;;4887725;29;20055;-70
2022/07/31 18:42:02;;;;;;;2.70;1.25;;;30.30;54.50;;;;;;4856406;29;20024;-69
2022/07/31 18:44:28;;;;;;;4.32;1.60;;;30.20;54.70;;;;;;4887608;29;20041;-70
2022/07/31 18:46:54;;;;;;;2.92;1.30;;;30.10;54.80;;;;;;4887021;29;20347;-70
2022/07/31 18:49:20;;;;;;;3.95;1.60;;;29.90;55.10;;;;;;4887840;29;20097;-69